sensor_id;sensor_type;location;lat;lon;timestamp;temperature;humidity
15095;DHT22;7648;52.264;9.632;2023-02-18T00:00:45;7.90;99.90
15095;DHT22;7648;52.264;9.632;2023-02-18T00:04:49;7.90;99.90
15095;DHT22;7648;52.264;9.632;2023-02-18T00:08:50;7.90;99.90
15095;DHT22;7648;52.264;9.632;2023-02-18T00:12:53;8.00;99.90
15095;DHT22;7648;52.264;9.632;2023-02-18T00:16:55;8.00;99.90
15095;DHT22;7648;52.264;9.632;2023-02-18T00:20:58;8.00;99.90
15095;DHT22;7648;52.264;9.632;2023-02-18T00:25:01;8.00;99.90
15095;DHT22;7648;52.264;9.632;2023-02-18T00:29:03;8.00;99.90
15095;DHT22;7648;52.264;9.632;2023-02-18T00:33:05;8.00;99.90
15095;DHT22;7648;52.264;9.632;2023-02-18T00:37:08;8.00;99.90
15095;DHT22;7648;52.264;9.632;2023-02-18T00:41:10;8.00;99.90
15095;DHT22;7648;52.264;9.632;2023-02-18T00:45:12;8.10;99.90
15095;DHT22;7648;52.264;9.632;2023-02-18T00:49:14;8.10;99.90
15095;DHT22;7648;52.264;9.632;2023-02-18T00:53:17;8.10;99.90
15095;DHT22;7648;52.264;9.632;2023-02-18T00:57:20;8.10;99.90
15095;DHT22;7648;52.264;9.632;2023-02-18T01:01:23;8.20;99.90
15095;DHT22;7648;52.264;9.632;2023-02-18T01:05:25;8.20;99.90
15095;DHT22;7648;52.264;9.632;2023-02-18T01:09:28;8.20;99.90
15095;DHT22;7648;52.264;9.632;2023-02-18T01:13:31;8.20;99.90
15095;DHT22;7648;52.264;9.632;2023-02-18T01:17:33;8.10;99.90
15095;DHT22;7648;52.264;9.632;2023-02-18T01:21:39;8.10;99.90
15095;DHT22;7648;52.264;9.632;2023-02-18T01:25:43;8.10;99.90
15095;DHT22;7648;52.264;9.632;2023-02-18T01:29:45;8.10;99.90
15095;DHT22;7648;52.264;9.632;2023-02-18T01:33:47;8.10;99.90
15095;DHT22;7648;52.264;9.632;2023-02-18T01:37:50;8.10;99.90
15095;DHT22;7648;52.264;9.632;2023-02-18T01:41:53;8.20;99.90
15095;DHT22;7648;52.264;9.632;2023-02-18T01:46:03;8.30;99.90
15095;DHT22;7648;52.264;9.632;2023-02-18T01:50:06;8.30;99.90
15095;DHT22;7648;52.264;9.632;2023-02-18T01:54:10;8.30;99.90
15095;DHT22;7648;52.264;9.632;2023-02-18T01:58:16;8.30;99.90
15095;DHT22;7648;52.264;9.632;2023-02-18T02:02:21;8.30;99.90
15095;DHT22;7648;52.264;9.632;2023-02-18T02:06:24;8.30;99.90
15095;DHT22;7648;52.264;9.632;2023-02-18T02:10:32;8.30;99.90
15095;DHT22;7648;52.264;9.632;2023-02-18T02:14:50;8.30;99.90
15095;DHT22;7648;52.264;9.632;2023-02-18T02:19:01;8.40;99.90
15095;DHT22;7648;52.264;9.632;2023-02-18T02:28:07;8.30;99.90
15095;DHT22;7648;52.264;9.632;2023-02-18T02:32:31;8.40;99.90
15095;DHT22;7648;52.264;9.632;2023-02-18T02:36:41;8.40;99.90
15095;DHT22;7648;52.264;9.632;2023-02-18T02:40:51;8.40;99.90
15095;DHT22;7648;52.264;9.632;2023-02-18T02:44:59;8.50;99.90
15095;DHT22;7648;52.264;9.632;2023-02-18T02:49:11;8.40;99.90
15095;DHT22;7648;52.264;9.632;2023-02-18T02:53:21;8.40;99.90
15095;DHT22;7648;52.264;9.632;2023-02-18T02:57:44;8.40;99.90
15095;DHT22;7648;52.264;9.632;2023-02-18T03:02:04;8.50;99.90
15095;DHT22;7648;52.264;9.632;2023-02-18T03:06:20;8.50;99.90
15095;DHT22;7648;52.264;9.632;2023-02-18T03:10:45;8.50;99.90
15095;DHT22;7648;52.264;9.632;2023-02-18T03:14:53;8.60;99.90
15095;DHT22;7648;52.264;9.632;2023-02-18T03:19:05;8.60;99.90
15095;DHT22;7648;52.264;9.632;2023-02-18T03:23:12;8.60;99.90
15095;DHT22;7648;52.264;9.632;2023-02-18T03:27:22;8.60;99.90
15095;DHT22;7648;52.264;9.632;2023-02-18T03:31:26;8.60;99.90
15095;DHT22;7648;52.264;9.632;2023-02-18T03:35:30;8.60;99.90
15095;DHT22;7648;52.264;9.632;2023-02-18T03:39:36;8.60;99.90
15095;DHT22;7648;52.264;9.632;2023-02-18T03:43:48;8.60;99.90
15095;DHT22;7648;52.264;9.632;2023-02-18T03:47:51;8.60;99.90
15095;DHT22;7648;52.264;9.632;2023-02-18T03:51:53;8.70;99.90
15095;DHT22;7648;52.264;9.632;2023-02-18T03:55:55;8.70;99.90
15095;DHT22;7648;52.264;9.632;2023-02-18T03:59:58;8.70;99.90
15095;DHT22;7648;52.264;9.632;2023-02-18T04:04:00;8.70;99.90
15095;DHT22;7648;52.264;9.632;2023-02-18T04:08:02;8.70;99.90
15095;DHT22;7648;52.264;9.632;2023-02-18T04:12:05;8.70;99.90
15095;DHT22;7648;52.264;9.632;2023-02-18T04:16:09;8.70;99.90
15095;DHT22;7648;52.264;9.632;2023-02-18T04:20:11;8.70;99.90
15095;DHT22;7648;52.264;9.632;2023-02-18T04:24:13;8.60;99.90
15095;DHT22;7648;52.264;9.632;2023-02-18T04:28:15;8.60;99.90
15095;DHT22;7648;52.264;9.632;2023-02-18T04:32:18;8.50;99.90
15095;DHT22;7648;52.264;9.632;2023-02-18T04:36:20;8.50;99.90
15095;DHT22;7648;52.264;9.632;2023-02-18T04:40:22;8.50;99.90
15095;DHT22;7648;52.264;9.632;2023-02-18T04:44:25;8.50;99.90
15095;DHT22;7648;52.264;9.632;2023-02-18T04:48:28;8.50;99.90
15095;DHT22;7648;52.264;9.632;2023-02-18T04:52:30;8.50;99.90
15095;DHT22;7648;52.264;9.632;2023-02-18T04:56:31;8.40;99.90
15095;DHT22;7648;52.264;9.632;2023-02-18T05:00:33;8.50;99.90
15095;DHT22;7648;52.264;9.632;2023-02-18T05:04:36;8.50;99.90
15095;DHT22;7648;52.264;9.632;2023-02-18T05:08:38;8.50;99.90
15095;DHT22;7648;52.264;9.632;2023-02-18T05:12:40;8.50;99.90
15095;DHT22;7648;52.264;9.632;2023-02-18T05:16:42;8.60;99.90
15095;DHT22;7648;52.264;9.632;2023-02-18T05:20:45;8.60;99.90
15095;DHT22;7648;52.264;9.632;2023-02-18T05:24:47;8.60;99.90
15095;DHT22;7648;52.264;9.632;2023-02-18T05:28:49;8.60;99.90
15095;DHT22;7648;52.264;9.632;2023-02-18T05:32:51;8.60;99.90
15095;DHT22;7648;52.264;9.632;2023-02-18T05:36:54;8.60;99.90
15095;DHT22;7648;52.264;9.632;2023-02-18T05:40:56;8.60;99.90
15095;DHT22;7648;52.264;9.632;2023-02-18T05:44:58;8.70;99.90
15095;DHT22;7648;52.264;9.632;2023-02-18T05:49:00;8.60;99.90
15095;DHT22;7648;52.264;9.632;2023-02-18T05:53:03;8.70;99.90
15095;DHT22;7648;52.264;9.632;2023-02-18T05:57:05;8.70;99.90
15095;DHT22;7648;52.264;9.632;2023-02-18T06:01:07;8.70;99.90
15095;DHT22;7648;52.264;9.632;2023-02-18T06:05:09;8.70;99.90
15095;DHT22;7648;52.264;9.632;2023-02-18T06:09:12;8.70;99.90
15095;DHT22;7648;52.264;9.632;2023-02-18T06:13:14;8.70;99.90
15095;DHT22;7648;52.264;9.632;2023-02-18T06:17:16;8.70;99.90
15095;DHT22;7648;52.264;9.632;2023-02-18T06:21:18;8.70;99.90
15095;DHT22;7648;52.264;9.632;2023-02-18T06:25:21;8.70;99.90
15095;DHT22;7648;52.264;9.632;2023-02-18T06:29:23;8.70;99.90
15095;DHT22;7648;52.264;9.632;2023-02-18T06:33:25;8.70;99.90
15095;DHT22;7648;52.264;9.632;2023-02-18T06:37:27;8.70;99.90
15095;DHT22;7648;52.264;9.632;2023-02-18T06:41:31;8.60;99.90
15095;DHT22;7648;52.264;9.632;2023-02-18T06:45:33;8.60;99.90
15095;DHT22;7648;52.264;9.632;2023-02-18T06:49:35;8.60;99.90
15095;DHT22;7648;52.264;9.632;2023-02-18T06:53:38;8.60;99.90
15095;DHT22;7648;52.264;9.632;2023-02-18T06:57:41;8.60;99.90
15095;DHT22;7648;52.264;9.632;2023-02-18T07:01:43;8.70;99.90
15095;DHT22;7648;52.264;9.632;2023-02-18T07:05:45;8.70;99.90
15095;DHT22;7648;52.264;9.632;2023-02-18T07:09:47;8.80;99.90
15095;DHT22;7648;52.264;9.632;2023-02-18T07:13:50;8.80;99.90
15095;DHT22;7648;52.264;9.632;2023-02-18T07:17:53;8.90;99.90
15095;DHT22;7648;52.264;9.632;2023-02-18T07:21:54;9.00;99.90
15095;DHT22;7648;52.264;9.632;2023-02-18T07:26:04;9.20;99.90
15095;DHT22;7648;52.264;9.632;2023-02-18T07:30:09;9.20;99.90
15095;DHT22;7648;52.264;9.632;2023-02-18T07:34:11;9.30;99.90
15095;DHT22;7648;52.264;9.632;2023-02-18T07:38:13;9.40;99.90
15095;DHT22;7648;52.264;9.632;2023-02-18T07:42:15;9.50;99.90
15095;DHT22;7648;52.264;9.632;2023-02-18T07:46:19;9.60;99.90
15095;DHT22;7648;52.264;9.632;2023-02-18T07:50:21;9.70;99.90
15095;DHT22;7648;52.264;9.632;2023-02-18T07:54:23;9.80;99.90
15095;DHT22;7648;52.264;9.632;2023-02-18T07:58:27;9.90;99.90
15095;DHT22;7648;52.264;9.632;2023-02-18T08:02:30;10.00;99.90
15095;DHT22;7648;52.264;9.632;2023-02-18T08:06:34;10.10;99.90
15095;DHT22;7648;52.264;9.632;2023-02-18T08:10:37;10.10;99.90
15095;DHT22;7648;52.264;9.632;2023-02-18T08:14:38;10.20;99.90
15095;DHT22;7648;52.264;9.632;2023-02-18T08:18:43;10.20;99.90
15095;DHT22;7648;52.264;9.632;2023-02-18T08:22:47;10.30;99.90
15095;DHT22;7648;52.264;9.632;2023-02-18T08:26:49;10.40;99.90
15095;DHT22;7648;52.264;9.632;2023-02-18T08:30:52;10.50;99.90
15095;DHT22;7648;52.264;9.632;2023-02-18T08:34:56;10.50;99.90
15095;DHT22;7648;52.264;9.632;2023-02-18T08:38:58;10.60;99.90
15095;DHT22;7648;52.264;9.632;2023-02-18T08:43:00;10.60;99.90
15095;DHT22;7648;52.264;9.632;2023-02-18T08:47:02;10.60;99.90
15095;DHT22;7648;52.264;9.632;2023-02-18T08:51:13;10.70;99.90
15095;DHT22;7648;52.264;9.632;2023-02-18T08:55:16;10.70;99.90
15095;DHT22;7648;52.264;9.632;2023-02-18T08:59:20;10.80;99.90
15095;DHT22;7648;52.264;9.632;2023-02-18T09:03:22;10.80;99.90
15095;DHT22;7648;52.264;9.632;2023-02-18T09:07:25;10.80;99.90
15095;DHT22;7648;52.264;9.632;2023-02-18T09:11:27;10.90;99.90
15095;DHT22;7648;52.264;9.632;2023-02-18T09:15:29;10.90;99.90
15095;DHT22;7648;52.264;9.632;2023-02-18T09:19:34;11.00;99.90
15095;DHT22;7648;52.264;9.632;2023-02-18T09:23:37;11.00;99.90
15095;DHT22;7648;52.264;9.632;2023-02-18T09:27:39;11.10;99.90
15095;DHT22;7648;52.264;9.632;2023-02-18T09:31:41;11.20;99.90
15095;DHT22;7648;52.264;9.632;2023-02-18T09:35:44;11.30;99.90
15095;DHT22;7648;52.264;9.632;2023-02-18T09:39:47;11.30;99.90
15095;DHT22;7648;52.264;9.632;2023-02-18T09:43:53;11.30;99.90
15095;DHT22;7648;52.264;9.632;2023-02-18T09:47:56;11.30;99.90
15095;DHT22;7648;52.264;9.632;2023-02-18T09:52:03;11.30;99.90
15095;DHT22;7648;52.264;9.632;2023-02-18T09:56:11;11.30;99.90
15095;DHT22;7648;52.264;9.632;2023-02-18T10:00:19;11.50;99.90
15095;DHT22;7648;52.264;9.632;2023-02-18T10:04:27;11.50;99.90
15095;DHT22;7648;52.264;9.632;2023-02-18T10:08:35;11.40;99.90
15095;DHT22;7648;52.264;9.632;2023-02-18T10:12:38;11.40;99.90
15095;DHT22;7648;52.264;9.632;2023-02-18T10:16:42;11.50;99.90
15095;DHT22;7648;52.264;9.632;2023-02-18T10:20:45;11.50;99.90
15095;DHT22;7648;52.264;9.632;2023-02-18T10:24:50;11.50;99.90
15095;DHT22;7648;52.264;9.632;2023-02-18T10:28:54;11.50;99.90
15095;DHT22;7648;52.264;9.632;2023-02-18T10:33:00;11.40;99.90
15095;DHT22;7648;52.264;9.632;2023-02-18T10:37:35;11.50;99.90
15095;DHT22;7648;52.264;9.632;2023-02-18T10:41:49;11.40;99.90
15095;DHT22;7648;52.264;9.632;2023-02-18T10:46:01;11.40;99.90
15095;DHT22;7648;52.264;9.632;2023-02-18T10:50:10;11.40;99.90
15095;DHT22;7648;52.264;9.632;2023-02-18T10:54:13;11.40;99.90
15095;DHT22;7648;52.264;9.632;2023-02-18T10:58:27;11.30;99.90
15095;DHT22;7648;52.264;9.632;2023-02-18T11:02:31;11.30;99.90
15095;DHT22;7648;52.264;9.632;2023-02-18T11:06:38;11.20;99.90
15095;DHT22;7648;52.264;9.632;2023-02-18T11:10:43;11.30;99.90
15095;DHT22;7648;52.264;9.632;2023-02-18T11:14:47;11.30;99.90
15095;DHT22;7648;52.264;9.632;2023-02-18T11:18:51;11.30;99.90
15095;DHT22;7648;52.264;9.632;2023-02-18T11:22:56;11.30;99.90
15095;DHT22;7648;52.264;9.632;2023-02-18T11:26:59;11.30;99.90
15095;DHT22;7648;52.264;9.632;2023-02-18T11:31:01;11.40;99.90
15095;DHT22;7648;52.264;9.632;2023-02-18T11:35:06;11.30;99.90
15095;DHT22;7648;52.264;9.632;2023-02-18T11:39:20;11.20;99.90
15095;DHT22;7648;52.264;9.632;2023-02-18T11:43:26;11.20;99.90
15095;DHT22;7648;52.264;9.632;2023-02-18T11:47:33;11.10;99.90
15095;DHT22;7648;52.264;9.632;2023-02-18T11:51:39;11.00;99.90
15095;DHT22;7648;52.264;9.632;2023-02-18T11:55:53;11.00;99.90
15095;DHT22;7648;52.264;9.632;2023-02-18T11:59:56;11.00;99.90
15095;DHT22;7648;52.264;9.632;2023-02-18T12:04:06;10.90;99.90
15095;DHT22;7648;52.264;9.632;2023-02-18T12:08:16;10.80;99.90
15095;DHT22;7648;52.264;9.632;2023-02-18T12:12:25;10.80;99.90
15095;DHT22;7648;52.264;9.632;2023-02-18T12:16:34;10.80;99.90
15095;DHT22;7648;52.264;9.632;2023-02-18T12:20:52;10.70;99.90
15095;DHT22;7648;52.264;9.632;2023-02-18T12:25:08;10.70;99.90
15095;DHT22;7648;52.264;9.632;2023-02-18T12:29:34;10.60;99.90
15095;DHT22;7648;52.264;9.632;2023-02-18T12:33:50;10.70;99.90
15095;DHT22;7648;52.264;9.632;2023-02-18T12:38:05;10.60;99.90
15095;DHT22;7648;52.264;9.632;2023-02-18T12:42:43;10.60;99.90
15095;DHT22;7648;52.264;9.632;2023-02-18T12:47:12;10.50;99.90
15095;DHT22;7648;52.264;9.632;2023-02-18T12:51:25;10.40;99.90
15095;DHT22;7648;52.264;9.632;2023-02-18T12:55:46;10.40;99.90
15095;DHT22;7648;52.264;9.632;2023-02-18T13:00:03;10.40;99.90
15095;DHT22;7648;52.264;9.632;2023-02-18T13:04:47;10.50;99.90
15095;DHT22;7648;52.264;9.632;2023-02-18T13:08:58;10.50;99.90
15095;DHT22;7648;52.264;9.632;2023-02-18T13:13:08;10.60;99.90
15095;DHT22;7648;52.264;9.632;2023-02-18T13:17:13;10.60;99.90
15095;DHT22;7648;52.264;9.632;2023-02-18T13:21:16;10.60;99.90
15095;DHT22;7648;52.264;9.632;2023-02-18T13:25:18;10.60;99.90
15095;DHT22;7648;52.264;9.632;2023-02-18T13:29:24;10.70;99.90
15095;DHT22;7648;52.264;9.632;2023-02-18T13:33:35;10.70;99.90
15095;DHT22;7648;52.264;9.632;2023-02-18T13:37:54;10.70;99.90
15095;DHT22;7648;52.264;9.632;2023-02-18T13:42:24;10.60;99.90
15095;DHT22;7648;52.264;9.632;2023-02-18T13:46:26;10.60;99.90
15095;DHT22;7648;52.264;9.632;2023-02-18T13:50:39;10.60;99.90
15095;DHT22;7648;52.264;9.632;2023-02-18T13:54:43;10.60;99.90
15095;DHT22;7648;52.264;9.632;2023-02-18T13:58:49;10.60;99.90
15095;DHT22;7648;52.264;9.632;2023-02-18T14:02:56;10.60;99.90
15095;DHT22;7648;52.264;9.632;2023-02-18T14:07:43;10.50;99.90
15095;DHT22;7648;52.264;9.632;2023-02-18T14:11:47;10.60;99.90
15095;DHT22;7648;52.264;9.632;2023-02-18T14:15:57;10.50;99.90
15095;DHT22;7648;52.264;9.632;2023-02-18T14:24:47;10.50;99.90
15095;DHT22;7648;52.264;9.632;2023-02-18T14:28:53;10.50;99.90
15095;DHT22;7648;52.264;9.632;2023-02-18T14:32:59;10.50;99.90
15095;DHT22;7648;52.264;9.632;2023-02-18T14:37:12;10.40;99.90
15095;DHT22;7648;52.264;9.632;2023-02-18T14:41:37;10.40;99.90
15095;DHT22;7648;52.264;9.632;2023-02-18T14:45:59;10.40;99.90
15095;DHT22;7648;52.264;9.632;2023-02-18T14:50:10;10.50;99.90
15095;DHT22;7648;52.264;9.632;2023-02-18T14:54:15;10.60;99.90
15095;DHT22;7648;52.264;9.632;2023-02-18T14:58:27;10.60;99.90
15095;DHT22;7648;52.264;9.632;2023-02-18T15:02:35;10.50;99.90
15095;DHT22;7648;52.264;9.632;2023-02-18T15:06:38;10.50;99.90
15095;DHT22;7648;52.264;9.632;2023-02-18T15:10:43;10.50;99.90
15095;DHT22;7648;52.264;9.632;2023-02-18T15:14:50;10.60;99.90
15095;DHT22;7648;52.264;9.632;2023-02-18T15:18:55;10.60;99.90
15095;DHT22;7648;52.264;9.632;2023-02-18T15:22:59;10.60;99.90
15095;DHT22;7648;52.264;9.632;2023-02-18T15:27:05;10.60;99.90
15095;DHT22;7648;52.264;9.632;2023-02-18T15:31:13;10.60;99.90
15095;DHT22;7648;52.264;9.632;2023-02-18T15:35:16;10.50;99.90
15095;DHT22;7648;52.264;9.632;2023-02-18T15:39:19;10.50;99.90
15095;DHT22;7648;52.264;9.632;2023-02-18T15:43:22;10.50;99.90
15095;DHT22;7648;52.264;9.632;2023-02-18T15:47:28;10.50;99.90
15095;DHT22;7648;52.264;9.632;2023-02-18T15:51:31;10.50;99.90
15095;DHT22;7648;52.264;9.632;2023-02-18T15:55:35;10.50;99.90
15095;DHT22;7648;52.264;9.632;2023-02-18T15:59:43;10.50;99.90
15095;DHT22;7648;52.264;9.632;2023-02-18T16:03:48;10.50;99.90
15095;DHT22;7648;52.264;9.632;2023-02-18T16:07:51;10.40;99.90
15095;DHT22;7648;52.264;9.632;2023-02-18T16:11:55;10.40;99.90
15095;DHT22;7648;52.264;9.632;2023-02-18T16:15:59;10.40;99.90
15095;DHT22;7648;52.264;9.632;2023-02-18T16:20:16;10.40;99.90
15095;DHT22;7648;52.264;9.632;2023-02-18T16:24:24;10.40;99.90
15095;DHT22;7648;52.264;9.632;2023-02-18T16:28:31;10.40;99.90
15095;DHT22;7648;52.264;9.632;2023-02-18T16:32:33;10.40;99.90
15095;DHT22;7648;52.264;9.632;2023-02-18T16:36:36;10.40;99.90
15095;DHT22;7648;52.264;9.632;2023-02-18T16:40:58;10.40;99.90
15095;DHT22;7648;52.264;9.632;2023-02-18T16:45:00;10.40;99.90
15095;DHT22;7648;52.264;9.632;2023-02-18T16:49:02;10.30;99.90
15095;DHT22;7648;52.264;9.632;2023-02-18T16:53:05;10.30;99.90
15095;DHT22;7648;52.264;9.632;2023-02-18T16:57:08;10.30;99.90
15095;DHT22;7648;52.264;9.632;2023-02-18T17:01:20;10.30;99.90
15095;DHT22;7648;52.264;9.632;2023-02-18T17:05:25;10.30;99.90
15095;DHT22;7648;52.264;9.632;2023-02-18T17:09:28;10.30;99.90
15095;DHT22;7648;52.264;9.632;2023-02-18T17:13:30;10.20;99.90
15095;DHT22;7648;52.264;9.632;2023-02-18T17:17:32;10.30;99.90
15095;DHT22;7648;52.264;9.632;2023-02-18T17:21:34;10.30;99.90
15095;DHT22;7648;52.264;9.632;2023-02-18T17:25:39;10.30;99.90
15095;DHT22;7648;52.264;9.632;2023-02-18T17:29:41;10.30;99.90
15095;DHT22;7648;52.264;9.632;2023-02-18T17:33:43;10.30;99.90
15095;DHT22;7648;52.264;9.632;2023-02-18T17:37:45;10.30;99.90
15095;DHT22;7648;52.264;9.632;2023-02-18T17:41:49;10.30;99.90
15095;DHT22;7648;52.264;9.632;2023-02-18T17:45:53;10.40;99.90
15095;DHT22;7648;52.264;9.632;2023-02-18T17:49:55;10.20;99.90
15095;DHT22;7648;52.264;9.632;2023-02-18T17:53:56;10.20;99.90
15095;DHT22;7648;52.264;9.632;2023-02-18T17:58:00;10.30;99.90
15095;DHT22;7648;52.264;9.632;2023-02-18T18:02:01;10.30;99.90
15095;DHT22;7648;52.264;9.632;2023-02-18T18:06:05;10.20;99.90
15095;DHT22;7648;52.264;9.632;2023-02-18T18:10:07;10.30;99.90
15095;DHT22;7648;52.264;9.632;2023-02-18T18:14:12;10.30;99.90
15095;DHT22;7648;52.264;9.632;2023-02-18T18:18:14;10.40;99.90
15095;DHT22;7648;52.264;9.632;2023-02-18T18:22:17;10.40;99.90
15095;DHT22;7648;52.264;9.632;2023-02-18T18:26:19;10.30;99.90
15095;DHT22;7648;52.264;9.632;2023-02-18T18:30:25;10.30;99.90
15095;DHT22;7648;52.264;9.632;2023-02-18T18:34:27;10.30;99.90
15095;DHT22;7648;52.264;9.632;2023-02-18T18:38:29;10.20;99.90
15095;DHT22;7648;52.264;9.632;2023-02-18T18:42:31;10.10;99.90
15095;DHT22;7648;52.264;9.632;2023-02-18T18:46:34;10.10;99.90
15095;DHT22;7648;52.264;9.632;2023-02-18T18:50:36;10.10;99.90
15095;DHT22;7648;52.264;9.632;2023-02-18T18:54:38;10.00;99.90
15095;DHT22;7648;52.264;9.632;2023-02-18T18:58:40;10.00;99.90
15095;DHT22;7648;52.264;9.632;2023-02-18T19:02:44;10.00;99.90
15095;DHT22;7648;52.264;9.632;2023-02-18T19:06:45;10.00;99.90
15095;DHT22;7648;52.264;9.632;2023-02-18T19:10:49;10.10;99.90
15095;DHT22;7648;52.264;9.632;2023-02-18T19:14:51;10.10;99.90
15095;DHT22;7648;52.264;9.632;2023-02-18T19:18:54;10.00;99.90
15095;DHT22;7648;52.264;9.632;2023-02-18T19:22:56;10.00;99.90
15095;DHT22;7648;52.264;9.632;2023-02-18T19:26:58;10.00;99.90
15095;DHT22;7648;52.264;9.632;2023-02-18T19:31:00;10.00;99.90
15095;DHT22;7648;52.264;9.632;2023-02-18T19:35:03;9.90;99.90
15095;DHT22;7648;52.264;9.632;2023-02-18T19:39:05;9.90;99.90
15095;DHT22;7648;52.264;9.632;2023-02-18T19:43:07;9.90;99.90
15095;DHT22;7648;52.264;9.632;2023-02-18T19:47:09;9.90;99.90
15095;DHT22;7648;52.264;9.632;2023-02-18T19:51:13;9.90;99.90
15095;DHT22;7648;52.264;9.632;2023-02-18T19:55:15;9.90;99.90
15095;DHT22;7648;52.264;9.632;2023-02-18T19:59:17;9.80;99.90
15095;DHT22;7648;52.264;9.632;2023-02-18T20:03:18;9.80;99.90
15095;DHT22;7648;52.264;9.632;2023-02-18T20:07:22;9.80;99.90
15095;DHT22;7648;52.264;9.632;2023-02-18T20:11:24;9.80;99.90
15095;DHT22;7648;52.264;9.632;2023-02-18T20:15:26;9.90;99.90
15095;DHT22;7648;52.264;9.632;2023-02-18T20:19:28;9.80;99.90
15095;DHT22;7648;52.264;9.632;2023-02-18T20:23:32;9.80;99.90
15095;DHT22;7648;52.264;9.632;2023-02-18T20:27:35;9.80;99.90
15095;DHT22;7648;52.264;9.632;2023-02-18T20:31:37;9.80;99.90
15095;DHT22;7648;52.264;9.632;2023-02-18T20:35:39;9.80;99.90
15095;DHT22;7648;52.264;9.632;2023-02-18T20:39:43;9.80;99.90
15095;DHT22;7648;52.264;9.632;2023-02-18T20:43:46;9.80;99.90
15095;DHT22;7648;52.264;9.632;2023-02-18T20:47:48;9.80;99.90
15095;DHT22;7648;52.264;9.632;2023-02-18T20:51:50;9.90;99.90
15095;DHT22;7648;52.264;9.632;2023-02-18T20:55:53;9.90;99.90
15095;DHT22;7648;52.264;9.632;2023-02-18T20:59:55;9.80;99.90
15095;DHT22;7648;52.264;9.632;2023-02-18T21:03:57;9.80;99.90
15095;DHT22;7648;52.264;9.632;2023-02-18T21:07:59;9.80;99.90
15095;DHT22;7648;52.264;9.632;2023-02-18T21:12:03;9.80;99.90
15095;DHT22;7648;52.264;9.632;2023-02-18T21:16:07;9.80;99.90
15095;DHT22;7648;52.264;9.632;2023-02-18T21:20:10;9.80;99.90
15095;DHT22;7648;52.264;9.632;2023-02-18T21:24:12;9.70;99.90
15095;DHT22;7648;52.264;9.632;2023-02-18T21:28:16;9.70;99.90
15095;DHT22;7648;52.264;9.632;2023-02-18T21:32:18;9.70;99.90
15095;DHT22;7648;52.264;9.632;2023-02-18T21:36:20;9.70;99.90
15095;DHT22;7648;52.264;9.632;2023-02-18T21:40:23;9.70;99.90
15095;DHT22;7648;52.264;9.632;2023-02-18T21:44:26;9.70;99.90
15095;DHT22;7648;52.264;9.632;2023-02-18T21:48:28;9.60;99.90
15095;DHT22;7648;52.264;9.632;2023-02-18T21:52:47;9.60;99.90
15095;DHT22;7648;52.264;9.632;2023-02-18T21:56:50;9.60;99.90
15095;DHT22;7648;52.264;9.632;2023-02-18T22:00:57;9.60;99.90
15095;DHT22;7648;52.264;9.632;2023-02-18T22:04:59;9.60;99.90
15095;DHT22;7648;52.264;9.632;2023-02-18T22:09:03;9.60;99.90
15095;DHT22;7648;52.264;9.632;2023-02-18T22:13:06;9.60;99.90
15095;DHT22;7648;52.264;9.632;2023-02-18T22:17:09;9.60;99.90
15095;DHT22;7648;52.264;9.632;2023-02-18T22:21:12;9.60;99.90
15095;DHT22;7648;52.264;9.632;2023-02-18T22:25:15;9.60;99.90
15095;DHT22;7648;52.264;9.632;2023-02-18T22:29:18;9.60;99.90
15095;DHT22;7648;52.264;9.632;2023-02-18T22:33:22;9.70;99.90
15095;DHT22;7648;52.264;9.632;2023-02-18T22:37:25;9.70;99.90
15095;DHT22;7648;52.264;9.632;2023-02-18T22:41:29;9.70;99.90
15095;DHT22;7648;52.264;9.632;2023-02-18T22:45:31;9.70;99.90
15095;DHT22;7648;52.264;9.632;2023-02-18T22:49:37;9.70;99.90
15095;DHT22;7648;52.264;9.632;2023-02-18T22:53:40;9.70;99.90
15095;DHT22;7648;52.264;9.632;2023-02-18T22:57:42;9.70;99.90
15095;DHT22;7648;52.264;9.632;2023-02-18T23:01:46;9.70;99.90
15095;DHT22;7648;52.264;9.632;2023-02-18T23:05:50;9.60;99.90
15095;DHT22;7648;52.264;9.632;2023-02-18T23:09:52;9.60;99.90
15095;DHT22;7648;52.264;9.632;2023-02-18T23:13:54;9.50;99.90
15095;DHT22;7648;52.264;9.632;2023-02-18T23:18:14;9.50;99.90
15095;DHT22;7648;52.264;9.632;2023-02-18T23:22:19;9.50;99.90
15095;DHT22;7648;52.264;9.632;2023-02-18T23:26:27;9.50;99.90
15095;DHT22;7648;52.264;9.632;2023-02-18T23:30:29;9.50;99.90
15095;DHT22;7648;52.264;9.632;2023-02-18T23:34:31;9.40;99.90
15095;DHT22;7648;52.264;9.632;2023-02-18T23:38:35;9.40;99.90
15095;DHT22;7648;52.264;9.632;2023-02-18T23:42:37;9.40;99.90
15095;DHT22;7648;52.264;9.632;2023-02-18T23:46:39;9.40;99.90
15095;DHT22;7648;52.264;9.632;2023-02-18T23:50:41;9.40;99.90
15095;DHT22;7648;52.264;9.632;2023-02-18T23:54:44;9.40;99.90
15095;DHT22;7648;52.264;9.632;2023-02-18T23:58:48;9.40;99.90
